KHYR/HYR METAR and TAF weather

Enter ICAO airport designator
Station Type Date Time Source
KHYR METAR 2024/04/18 07:53 UTC NOAA

KHYR 180753Z AUTO 00000KT 10SM CLR 01/00 A2991 RMK AO2 SLP140 T00060000


Station Type Date Time Source
KHYR Decoded METAR 2024/04/18 07:53 UTC NOAA

HAYWARD MUNICIPAL AIRPORT, WI, United States (KHYR) 46-01N 91-27W 370M
Apr 18, 2024 - 03:53 AM EDT / 2024.04.18 0753 UTC
Wind: Calm:0
Visibility: 10 mile(s):0
Sky conditions: clear
Temperature: 33.1 F (0.6 C)
Dew Point: 32.0 F (0.0 C)
Relative Humidity: 95%
Pressure (altimeter): 29.91 in. Hg (1012 hPa)
ob: KHYR 180753Z AUTO 00000KT 10SM CLR 01/00 A2991 RMK AO2 SLP140 T00060000
cycle: 8

Station Type Date Time Source
KHYR TAF 2024/04/18 08:42 UTC NOAA